createdAt,value
2022-10-28T00:01:16.139Z,14.05
2022-10-28T00:03:45.058Z,16.38
2022-10-28T00:06:17.822Z,18.55
2022-10-28T00:08:44.794Z,14.95
2022-10-28T00:11:23.311Z,13.95
2022-10-28T00:13:52.284Z,14.55
2022-10-28T00:16:22.664Z,17.42
2022-10-28T00:18:52.365Z,15.40
2022-10-28T00:21:21.219Z,13.52
2022-10-28T00:23:47.824Z,16.20
2022-10-28T00:26:24.595Z,13.07
2022-10-28T00:28:53.829Z,14.07
2022-10-28T00:31:21.881Z,17.00
2022-10-28T00:33:48.896Z,13.45
2022-10-28T00:36:22.013Z,16.58
2022-10-28T00:38:51.296Z,17.92
2022-10-28T00:41:22.676Z,14.30
2022-10-28T00:43:52.287Z,16.33
2022-10-28T00:46:25.174Z,18.40
2022-10-28T00:48:57.332Z,18.27
2022-10-28T00:51:25.399Z,17.20
2022-10-28T00:53:54.317Z,15.68
2022-10-28T00:56:23.018Z,13.35
2022-10-28T00:58:51.560Z,14.02
2022-10-28T01:01:18.360Z,19.10
2022-10-28T01:03:45.012Z,12.68
2022-10-28T01:06:11.711Z,9.57
2022-10-28T01:08:38.367Z,14.13
2022-10-28T01:11:39.884Z,15.38
2022-10-28T01:14:21.905Z,14.10
2022-10-28T01:17:09.257Z,16.00
2022-10-28T01:20:15.907Z,13.40
2022-10-28T01:23:15.067Z,11.60
2022-10-28T01:26:02.781Z,11.70
2022-10-28T01:28:32.176Z,15.05
2022-10-28T01:31:32.536Z,14.40
2022-10-28T01:34:27.235Z,13.23
2022-10-28T01:37:06.206Z,15.57
2022-10-28T01:39:51.453Z,15.30
2022-10-28T01:42:39.547Z,14.07
2022-10-28T01:45:14.656Z,14.40
2022-10-28T01:48:02.847Z,14.60
2022-10-28T01:50:33.284Z,13.00
2022-10-28T01:53:06.358Z,11.75
2022-10-28T01:55:40.215Z,15.65
2022-10-28T01:58:09.137Z,17.88
2022-10-28T02:00:37.515Z,11.40
2022-10-28T02:03:08.772Z,14.15
2022-10-28T02:05:39.272Z,11.48
2022-10-28T02:08:18.078Z,12.02
2022-10-28T02:11:06.059Z,13.80
2022-10-28T02:13:39.383Z,17.45
2022-10-28T02:16:15.080Z,13.90
2022-10-28T02:18:53.117Z,13.52
2022-10-28T02:21:47.141Z,19.80
2022-10-28T02:24:28.507Z,10.38
2022-10-28T02:27:33.423Z,14.90
2022-10-28T02:30:07.798Z,14.88
2022-10-28T02:32:40.290Z,17.43
2022-10-28T02:35:15.351Z,21.08
2022-10-28T02:37:43.911Z,17.25
2022-10-28T02:40:16.419Z,12.75
2022-10-28T02:42:48.784Z,16.38
2022-10-28T02:45:25.279Z,13.57
2022-10-28T02:47:56.678Z,12.15
2022-10-28T02:50:31.887Z,13.90
2022-10-28T02:55:34.264Z,15.95
2022-10-28T03:00:27.558Z,15.23
2022-10-28T03:02:54.194Z,15.70
2022-10-28T03:05:20.796Z,19.63
2022-10-28T03:07:47.406Z,12.77
2022-10-28T03:10:14.065Z,18.20
2022-10-28T03:12:40.591Z,14.00
2022-10-28T03:15:07.870Z,15.10
2022-10-28T03:17:34.457Z,13.80
2022-10-28T03:20:01.084Z,12.00
2022-10-28T03:22:27.709Z,12.68
2022-10-28T03:24:54.294Z,17.42
2022-10-28T03:27:20.834Z,16.75
2022-10-28T03:29:47.350Z,19.52
2022-10-28T03:32:14.149Z,12.23
2022-10-28T03:34:40.949Z,18.55
2022-10-28T03:37:07.472Z,20.30
2022-10-28T03:39:34.097Z,13.85
2022-10-28T03:42:00.800Z,12.68
2022-10-28T03:44:27.527Z,13.73
2022-10-28T03:46:54.068Z,14.30
2022-10-28T03:49:20.744Z,15.68
2022-10-28T03:51:47.539Z,16.58
2022-10-28T03:54:14.076Z,17.65
2022-10-28T03:56:40.788Z,17.67
2022-10-28T03:59:09.716Z,12.77
2022-10-28T04:01:36.365Z,14.15
2022-10-28T04:04:03.291Z,17.23
2022-10-28T04:06:30.285Z,14.85
2022-10-28T04:08:57.013Z,11.88
2022-10-28T04:11:23.804Z,17.27
2022-10-28T04:13:50.568Z,13.38
2022-10-28T04:16:17.263Z,16.02
2022-10-28T04:18:43.995Z,16.30
2022-10-28T04:21:11.889Z,20.42
2022-10-28T04:23:38.497Z,19.20
2022-10-28T04:26:05.599Z,17.95
2022-10-28T04:28:32.904Z,18.75
2022-10-28T04:30:59.704Z,18.15
2022-10-28T04:33:26.265Z,14.15
2022-10-28T04:35:52.969Z,15.18
2022-10-28T04:38:19.679Z,17.77
2022-10-28T04:40:50.092Z,16.88
2022-10-28T04:43:16.838Z,17.88
2022-10-28T04:45:43.559Z,17.30
2022-10-28T04:48:12.312Z,16.67
2022-10-28T04:50:39.473Z,16.80
2022-10-28T04:53:06.258Z,22.02
2022-10-28T04:55:33.902Z,16.83
2022-10-28T04:58:01.381Z,25.83
2022-10-28T05:00:29.964Z,21.17
2022-10-28T05:02:57.707Z,15.20
2022-10-28T05:05:25.708Z,18.63
2022-10-28T05:07:52.595Z,19.52
2022-10-28T05:10:19.380Z,19.08
2022-10-28T05:12:46.340Z,15.48
2022-10-28T05:15:14.425Z,16.00
2022-10-28T05:17:43.439Z,24.70
2022-10-28T05:20:11.768Z,16.85
2022-10-28T05:22:38.544Z,17.70
2022-10-28T05:25:05.811Z,14.25
2022-10-28T05:27:32.566Z,13.18
2022-10-28T05:29:59.386Z,14.02
2022-10-28T05:32:26.035Z,18.20
2022-10-28T05:34:52.810Z,13.90
2022-10-28T05:37:19.481Z,13.82
2022-10-28T05:39:46.111Z,14.20
2022-10-28T05:42:12.653Z,17.23
2022-10-28T05:44:39.563Z,16.00
2022-10-28T05:47:06.318Z,17.25
2022-10-28T05:49:33.099Z,15.32
2022-10-28T05:51:59.705Z,17.63
2022-10-28T05:54:26.556Z,14.93
2022-10-28T05:56:53.196Z,15.77
2022-10-28T05:59:21.102Z,15.10
2022-10-28T06:01:47.852Z,13.30
2022-10-28T06:04:14.668Z,16.95
2022-10-28T06:06:41.346Z,17.70
2022-10-28T06:09:07.934Z,14.38
2022-10-28T06:11:33.739Z,16.13
2022-10-28T06:14:00.633Z,12.68
2022-10-28T06:16:27.332Z,15.93
2022-10-28T06:18:54.081Z,14.35
2022-10-28T06:21:20.770Z,14.57
2022-10-28T06:23:47.291Z,14.10
2022-10-28T06:26:13.821Z,16.58
2022-10-28T06:28:40.357Z,15.70
2022-10-28T06:31:07.716Z,12.02
2022-10-28T06:33:34.435Z,16.73
2022-10-28T06:36:01.157Z,13.52
2022-10-28T06:38:28.256Z,20.73
2022-10-28T06:40:58.029Z,18.45
2022-10-28T06:43:24.855Z,19.17
2022-10-28T06:45:55.177Z,16.17
2022-10-28T06:48:24.020Z,18.92
2022-10-28T06:50:50.642Z,17.17
2022-10-28T06:53:17.262Z,16.27
2022-10-28T06:55:48.580Z,12.75
2022-10-28T06:58:15.356Z,15.90
2022-10-28T07:00:42.060Z,13.98
2022-10-28T07:03:10.604Z,18.27
2022-10-28T07:05:37.562Z,15.80
2022-10-28T07:08:04.814Z,18.35
2022-10-28T07:10:31.637Z,15.52
2022-10-28T07:12:58.521Z,11.93
2022-10-28T07:15:25.175Z,15.93
2022-10-28T07:17:53.720Z,13.68
2022-10-28T07:20:20.699Z,13.82
2022-10-28T07:22:47.251Z,15.70
2022-10-28T07:25:13.922Z,16.95
2022-10-28T07:27:40.458Z,12.88
2022-10-28T07:30:07.704Z,14.80
2022-10-28T07:32:34.378Z,17.50
2022-10-28T07:35:01.016Z,12.48
2022-10-28T07:37:29.557Z,13.70
2022-10-28T07:39:56.095Z,12.20
2022-10-28T07:42:22.841Z,16.63
2022-10-28T07:44:49.498Z,19.45
2022-10-28T07:47:17.528Z,11.88
2022-10-28T07:49:44.089Z,13.52
2022-10-28T07:52:10.665Z,17.83
2022-10-28T07:54:37.256Z,13.20
2022-10-28T07:57:04.007Z,19.83
2022-10-28T07:59:30.685Z,13.27
2022-10-28T08:01:57.457Z,13.13
2022-10-28T08:04:24.182Z,11.95
2022-10-28T08:06:50.896Z,12.27
2022-10-28T08:09:17.444Z,13.60
2022-10-28T08:11:43.957Z,12.38
2022-10-28T08:14:10.553Z,16.73
2022-10-28T08:16:37.173Z,13.48
2022-10-28T08:19:07.699Z,16.05
2022-10-28T08:21:34.464Z,12.32
2022-10-28T08:24:00.973Z,13.73
2022-10-28T08:26:27.534Z,11.90
2022-10-28T08:28:54.084Z,15.75
2022-10-28T08:31:20.615Z,12.38
2022-10-28T08:33:47.421Z,14.95
2022-10-28T08:36:16.571Z,8.95
2022-10-28T08:38:45.715Z,13.15
2022-10-28T08:41:28.088Z,11.18
2022-10-28T08:44:07.707Z,10.80
2022-10-28T08:46:48.147Z,8.35
2022-10-28T08:49:17.919Z,9.57
2022-10-28T08:51:47.990Z,7.32
2022-10-28T08:54:24.248Z,8.02
2022-10-28T08:56:54.867Z,8.10
2022-10-28T08:59:31.042Z,7.57
2022-10-28T09:02:00.938Z,13.23
2022-10-28T09:04:40.583Z,8.88
2022-10-28T09:07:18.585Z,8.35
2022-10-28T09:09:46.441Z,8.50
2022-10-28T09:12:23.107Z,10.60
2022-10-28T09:15:14.187Z,9.90
2022-10-28T09:18:04.188Z,9.13
2022-10-28T09:20:50.230Z,10.10
2022-10-28T09:23:33.480Z,12.77
2022-10-28T09:26:28.275Z,9.15
2022-10-28T09:29:13.635Z,11.70
2022-10-28T09:31:47.908Z,9.02
2022-10-28T09:34:30.033Z,11.83
2022-10-28T09:37:32.330Z,11.20
2022-10-28T09:40:13.548Z,8.27
2022-10-28T09:43:01.086Z,10.13
2022-10-28T09:45:31.891Z,8.75
2022-10-28T09:48:14.410Z,12.85
2022-10-28T09:50:41.172Z,9.25
2022-10-28T09:53:35.803Z,10.70
2022-10-28T09:56:03.684Z,12.55
2022-10-28T09:58:32.581Z,8.90
2022-10-28T10:00:59.349Z,14.90
2022-10-28T10:03:25.932Z,10.82
2022-10-28T10:05:56.788Z,9.07
2022-10-28T10:08:23.893Z,10.02
2022-10-28T10:10:52.866Z,13.25
2022-10-28T10:13:25.365Z,13.95
2022-10-28T10:15:56.648Z,6.97
2022-10-28T10:18:26.973Z,10.38
2022-10-28T10:20:58.367Z,8.65
2022-10-28T10:23:36.890Z,12.23
2022-10-28T10:26:11.282Z,10.68
2022-10-28T10:28:48.323Z,11.65
2022-10-28T10:31:29.647Z,8.57
2022-10-28T10:33:58.436Z,9.98
2022-10-28T10:36:28.919Z,8.82
2022-10-28T10:38:57.319Z,11.80
2022-10-28T10:41:44.269Z,10.10
2022-10-28T10:44:23.128Z,10.10
2022-10-28T10:47:05.908Z,11.05
2022-10-28T10:49:34.308Z,8.65
2022-10-28T10:52:16.037Z,9.70
2022-10-28T10:54:57.159Z,10.45
2022-10-28T10:57:25.515Z,8.00
2022-10-28T10:59:54.497Z,10.48
2022-10-28T11:02:39.684Z,9.63
2022-10-28T11:07:34.610Z,11.45
2022-10-28T11:10:02.134Z,7.88
2022-10-28T11:12:32.057Z,8.38
2022-10-28T11:15:03.605Z,13.50
2022-10-28T11:17:34.900Z,14.15
2022-10-28T11:20:23.459Z,7.20
2022-10-28T11:23:12.084Z,12.18
2022-10-28T11:25:46.862Z,11.35
2022-10-28T11:28:25.697Z,13.50
2022-10-28T11:31:25.476Z,11.88
2022-10-28T11:34:21.804Z,9.68
2022-10-28T11:37:13.361Z,13.80
2022-10-28T11:40:07.480Z,11.35
2022-10-28T11:42:45.520Z,11.20
2022-10-28T11:45:24.180Z,9.90
2022-10-28T11:48:24.255Z,12.35
2022-10-28T11:51:13.894Z,9.55
2022-10-28T11:54:08.249Z,12.57
2022-10-28T11:56:39.536Z,13.38
2022-10-28T11:59:24.325Z,7.40
2022-10-28T12:02:14.277Z,11.23
2022-10-28T12:04:58.628Z,9.63
2022-10-28T12:07:28.217Z,6.05
2022-10-28T12:10:07.682Z,8.07
2022-10-28T12:12:53.937Z,11.55
2022-10-28T12:15:48.561Z,8.35
2022-10-28T12:18:29.689Z,9.75
2022-10-28T12:21:14.351Z,10.00
2022-10-28T12:23:42.740Z,9.48
2022-10-28T12:26:14.734Z,9.80
2022-10-28T12:28:45.728Z,11.98
2022-10-28T12:31:30.219Z,9.27
2022-10-28T12:34:00.818Z,7.40
2022-10-28T12:36:43.267Z,12.10
2022-10-28T12:39:24.646Z,11.98
2022-10-28T12:42:15.622Z,12.95
2022-10-28T12:44:43.089Z,12.50
2022-10-28T12:47:25.496Z,12.23
2022-10-28T12:50:10.666Z,17.92
2022-10-28T12:53:01.845Z,11.13
2022-10-28T12:55:48.298Z,14.48
2022-10-28T12:58:32.248Z,12.35
2022-10-28T13:01:14.194Z,9.30
2022-10-28T13:03:41.143Z,16.90
2022-10-28T13:06:19.687Z,11.75
2022-10-28T13:09:05.273Z,8.25
2022-10-28T13:12:00.098Z,7.68
2022-10-28T13:15:13.407Z,7.93
2022-10-28T13:18:05.477Z,12.40
2022-10-28T13:21:02.398Z,8.65
2022-10-28T13:23:42.435Z,10.65
2022-10-28T13:26:26.865Z,9.02
2022-10-28T13:28:58.854Z,14.27
2022-10-28T13:31:41.729Z,12.10
2022-10-28T13:34:11.214Z,11.48
2022-10-28T13:36:42.725Z,10.13
2022-10-28T13:39:29.572Z,15.43
2022-10-28T13:42:23.285Z,13.00
2022-10-28T13:44:49.882Z,8.90
2022-10-28T13:47:17.464Z,11.52
2022-10-28T13:50:06.175Z,11.15
2022-10-28T13:52:34.186Z,9.68
2022-10-28T13:55:20.285Z,12.27
2022-10-28T13:57:50.002Z,12.15
2022-10-28T14:00:20.058Z,14.50
2022-10-28T14:02:49.247Z,11.23
2022-10-28T14:05:19.307Z,10.30
2022-10-28T14:07:59.075Z,13.48
2022-10-28T14:10:50.477Z,8.63
2022-10-28T14:13:19.826Z,12.52
2022-10-28T14:15:50.553Z,14.38
2022-10-28T14:18:46.570Z,8.75
2022-10-28T14:21:04.244Z,13.88
2022-10-28T14:23:33.643Z,12.30
2022-10-28T14:26:04.999Z,9.52
2022-10-28T14:28:31.803Z,8.02
2022-10-28T14:31:10.705Z,12.82
2022-10-28T14:33:43.399Z,12.50
2022-10-28T14:36:46.098Z,10.82
2022-10-28T14:39:34.373Z,10.18
2022-10-28T14:42:39.841Z,9.23
2022-10-28T14:45:33.479Z,9.65
2022-10-28T14:48:21.207Z,13.20
2022-10-28T14:50:51.404Z,7.20
2022-10-28T14:53:24.186Z,10.15
2022-10-28T14:55:58.583Z,12.00
2022-10-28T14:58:30.530Z,15.43
2022-10-28T15:01:18.348Z,13.30
2022-10-28T15:03:52.250Z,10.85
2022-10-28T15:06:34.055Z,12.65
2022-10-28T15:09:15.845Z,15.10
2022-10-28T15:11:46.370Z,12.20
2022-10-28T15:14:35.211Z,8.45
2022-10-28T15:17:18.673Z,10.45
2022-10-28T15:19:47.514Z,12.88
2022-10-28T15:22:19.163Z,10.38
2022-10-28T15:24:59.247Z,11.82
2022-10-28T15:27:29.444Z,11.38
2022-10-28T15:29:56.569Z,17.33
2022-10-28T15:32:23.060Z,21.33
2022-10-28T15:34:49.718Z,20.48
2022-10-28T15:37:26.112Z,15.93
2022-10-28T15:40:11.451Z,19.63
2022-10-28T15:42:44.546Z,18.70
2022-10-28T15:45:18.202Z,20.65
2022-10-28T15:47:46.238Z,15.93
2022-10-28T15:50:15.659Z,14.55
2022-10-28T15:52:50.172Z,12.48
2022-10-28T15:55:19.691Z,15.75
2022-10-28T15:57:51.622Z,15.25
2022-10-28T16:00:20.848Z,14.68
2022-10-28T16:02:55.728Z,12.90
2022-10-28T16:05:34.790Z,12.23
2022-10-28T16:08:07.862Z,13.18
2022-10-28T16:10:42.626Z,12.30
2022-10-28T16:13:27.385Z,17.63
2022-10-28T16:16:00.383Z,13.60
2022-10-28T16:18:29.654Z,16.80
2022-10-28T16:20:58.480Z,18.10
2022-10-28T16:23:32.987Z,12.95
2022-10-28T16:25:59.558Z,10.43
2022-10-28T16:28:27.571Z,9.98
2022-10-28T16:30:56.150Z,14.30
2022-10-28T16:33:28.528Z,12.13
2022-10-28T16:35:55.744Z,14.10
2022-10-28T16:38:22.488Z,9.75
2022-10-28T16:40:52.004Z,14.77
2022-10-28T16:43:22.626Z,12.32
2022-10-28T16:45:51.481Z,9.48
2022-10-28T16:48:19.830Z,10.52
2022-10-28T16:50:52.247Z,15.32
2022-10-28T16:53:19.508Z,11.52
2022-10-28T16:55:46.188Z,13.80
2022-10-28T16:58:13.232Z,12.35
2022-10-28T17:00:40.498Z,14.88
2022-10-28T17:03:07.743Z,12.80
2022-10-28T17:05:34.483Z,13.18
2022-10-28T17:08:04.545Z,14.57
2022-10-28T17:10:36.814Z,14.38
2022-10-28T17:13:03.415Z,11.45
2022-10-28T17:15:29.977Z,12.02
2022-10-28T17:17:57.848Z,11.52
2022-10-28T17:20:24.394Z,13.15
2022-10-28T17:22:50.919Z,13.20
2022-10-28T17:25:17.974Z,13.48
2022-10-28T17:27:48.698Z,12.95
2022-10-28T17:30:17.372Z,15.15
2022-10-28T17:32:45.318Z,16.10
2022-10-28T17:35:12.047Z,14.35
2022-10-28T17:37:38.625Z,16.55
2022-10-28T17:40:06.199Z,20.20
2022-10-28T17:42:32.745Z,22.95
2022-10-28T17:44:59.608Z,18.33
2022-10-28T17:47:26.255Z,21.38
2022-10-28T17:49:52.793Z,20.95
2022-10-28T17:52:27.837Z,19.42
2022-10-28T17:54:54.505Z,19.98
2022-10-28T17:57:21.253Z,17.25
2022-10-28T17:59:47.951Z,20.67
2022-10-28T18:02:14.965Z,21.35
2022-10-28T18:04:42.002Z,18.80
2022-10-28T18:07:08.658Z,23.38
2022-10-28T18:09:35.353Z,21.42
2022-10-28T18:12:02.546Z,15.00
2022-10-28T18:14:29.954Z,21.33
2022-10-28T18:16:57.078Z,17.27
2022-10-28T18:19:23.670Z,18.25
2022-10-28T18:21:50.370Z,20.90
2022-10-28T18:24:18.599Z,16.25
2022-10-28T18:26:47.250Z,15.85
2022-10-28T18:29:13.954Z,20.95
2022-10-28T18:31:43.709Z,15.32
2022-10-28T18:34:10.770Z,17.33
2022-10-28T18:36:37.607Z,18.17
2022-10-28T18:39:06.797Z,18.00
2022-10-28T18:41:35.999Z,21.02
2022-10-28T18:44:04.519Z,28.02
2022-10-28T18:46:35.155Z,19.65
2022-10-28T18:49:02.454Z,19.52
2022-10-28T18:51:29.481Z,24.88
2022-10-28T18:53:56.843Z,17.67
2022-10-28T18:56:25.944Z,25.90
2022-10-28T18:58:52.624Z,18.38
2022-10-28T19:01:25.151Z,19.55
2022-10-28T19:03:57.075Z,20.85
2022-10-28T19:06:25.951Z,15.43
2022-10-28T19:08:57.216Z,25.58
2022-10-28T19:11:30.014Z,23.95
2022-10-28T19:14:02.517Z,20.95
2022-10-28T19:16:31.012Z,22.35
2022-10-28T19:18:59.109Z,22.13
2022-10-28T19:21:27.137Z,23.65
2022-10-28T19:23:54.228Z,21.30
2022-10-28T19:26:22.928Z,16.98
2022-10-28T19:28:50.338Z,21.02
2022-10-28T19:31:22.982Z,21.60
2022-10-28T19:33:49.602Z,20.92
2022-10-28T19:36:20.613Z,18.08
2022-10-28T19:38:48.786Z,17.77
2022-10-28T19:41:18.100Z,23.05
2022-10-28T19:43:45.101Z,20.35
2022-10-28T19:46:17.661Z,20.48
2022-10-28T19:48:49.715Z,21.27
2022-10-28T19:51:18.813Z,26.45
2022-10-28T19:53:56.511Z,19.98
2022-10-28T19:56:23.430Z,21.85
2022-10-28T19:58:55.578Z,20.85
2022-10-28T20:01:23.560Z,18.02
2022-10-28T20:03:51.493Z,20.77
2022-10-28T20:06:20.428Z,17.23
2022-10-28T20:08:48.012Z,20.05
2022-10-28T20:11:20.038Z,17.02
2022-10-28T20:13:57.466Z,19.02
2022-10-28T20:16:24.990Z,28.80
2022-10-28T20:18:52.730Z,16.02
2022-10-28T20:21:21.727Z,23.50
2022-10-28T20:26:18.950Z,22.92
2022-10-28T20:28:45.922Z,21.73
2022-10-28T20:31:16.076Z,21.90
2022-10-28T20:33:44.325Z,19.80
2022-10-28T20:36:31.250Z,22.00
2022-10-28T20:39:00.389Z,23.00
2022-10-28T20:41:30.175Z,22.40
2022-10-28T20:43:57.111Z,19.02
2022-10-28T20:46:24.822Z,22.05
2022-10-28T20:48:53.880Z,19.60
2022-10-28T20:51:21.787Z,23.42
2022-10-28T20:53:48.523Z,24.48
2022-10-28T20:56:17.289Z,17.45
2022-10-28T20:58:44.145Z,22.38
2022-10-28T21:01:16.979Z,20.63
2022-10-28T21:03:44.313Z,19.23
2022-10-28T21:06:11.686Z,24.00
2022-10-28T21:08:38.586Z,19.67
2022-10-28T21:11:07.282Z,18.55
2022-10-28T21:13:34.508Z,20.15
2022-10-28T21:16:06.099Z,17.35
2022-10-28T21:18:33.127Z,23.50
2022-10-28T21:21:00.356Z,17.08
2022-10-28T21:23:27.960Z,21.45
2022-10-28T21:26:00.315Z,20.77
2022-10-28T21:28:28.622Z,17.90
2022-10-28T21:31:05.192Z,18.50
2022-10-28T21:33:33.448Z,21.30
2022-10-28T21:36:02.499Z,18.88
2022-10-28T21:38:29.974Z,20.60
2022-10-28T21:41:00.990Z,16.15
2022-10-28T21:43:32.845Z,20.50
2022-10-28T21:45:59.686Z,19.50
2022-10-28T21:48:29.147Z,16.65
2022-10-28T21:50:57.670Z,13.82
2022-10-28T21:53:25.355Z,18.35
2022-10-28T21:55:53.113Z,19.90
2022-10-28T21:58:21.642Z,15.27
2022-10-28T22:00:48.355Z,20.77
2022-10-28T22:03:15.412Z,18.42
2022-10-28T22:05:49.986Z,13.18
2022-10-28T22:08:17.680Z,18.00
2022-10-28T22:10:44.302Z,16.25
2022-10-28T22:13:10.890Z,21.98
2022-10-28T22:15:37.544Z,21.40
2022-10-28T22:18:04.194Z,16.42
2022-10-28T22:20:30.751Z,17.45
2022-10-28T22:22:57.535Z,19.52
2022-10-28T22:25:24.325Z,13.02
2022-10-28T22:27:50.967Z,19.17
2022-10-28T22:30:17.603Z,13.88
2022-10-28T22:32:44.186Z,23.92
2022-10-28T22:35:11.788Z,12.40
2022-10-28T22:37:38.323Z,14.35
2022-10-28T22:40:05.260Z,16.88
2022-10-28T22:42:31.858Z,15.98
2022-10-28T22:44:58.505Z,15.23
2022-10-28T22:47:25.189Z,18.42
2022-10-28T22:49:51.781Z,14.18
2022-10-28T22:52:18.374Z,13.07
2022-10-28T22:54:44.892Z,17.83
2022-10-28T22:57:11.468Z,16.85
2022-10-28T22:59:37.982Z,19.13
2022-10-28T23:02:04.693Z,20.55
2022-10-28T23:04:31.337Z,16.70
2022-10-28T23:06:57.959Z,18.25
2022-10-28T23:09:24.557Z,21.40
2022-10-28T23:11:51.159Z,15.50
2022-10-28T23:14:17.814Z,18.10
2022-10-28T23:16:44.347Z,16.17
2022-10-28T23:19:10.870Z,16.85
2022-10-28T23:21:37.419Z,15.25
2022-10-28T23:24:04.178Z,16.30
2022-10-28T23:26:30.806Z,18.80
2022-10-28T23:28:59.418Z,19.42
2022-10-28T23:31:26.857Z,22.42
2022-10-28T23:33:54.836Z,16.40
2022-10-28T23:36:21.778Z,15.80
2022-10-28T23:38:48.460Z,16.83
2022-10-28T23:41:18.435Z,15.48
2022-10-28T23:43:46.083Z,14.48
2022-10-28T23:46:12.683Z,20.73
2022-10-28T23:48:39.377Z,14.32
2022-10-28T23:51:06.381Z,17.25
2022-10-28T23:53:32.965Z,14.68
2022-10-28T23:55:59.557Z,16.23
2022-10-28T23:58:26.419Z,13.02
